createdAt,value
2023-04-27T00:03:26.855Z,15.00
2023-04-27T00:08:30.104Z,18.00
2023-04-27T00:13:33.239Z,18.00
2023-04-27T00:18:37.067Z,16.00
2023-04-27T00:23:40.200Z,17.00
2023-04-27T00:28:43.365Z,16.00
2023-04-27T00:48:59.162Z,21.00
2023-04-27T00:54:02.475Z,20.00
2023-04-27T00:59:06.719Z,21.00
2023-04-27T01:04:10.179Z,21.00
2023-04-27T01:09:14.213Z,23.00
2023-04-27T01:14:17.613Z,20.00
2023-04-27T01:19:20.886Z,20.50
2023-04-27T01:24:24.117Z,20.00
2023-04-27T01:29:27.414Z,18.00
2023-04-27T01:34:30.581Z,22.00
2023-04-27T01:39:33.695Z,20.50
2023-04-27T01:44:36.974Z,22.00
2023-04-27T01:49:40.141Z,23.00
2023-04-27T01:59:46.459Z,24.00
2023-04-27T02:04:49.746Z,21.00
2023-04-27T02:09:53.237Z,21.00
2023-04-27T02:14:56.443Z,22.00
2023-04-27T02:20:00.282Z,16.00
2023-04-27T02:25:03.677Z,23.00
2023-04-27T02:35:11.315Z,14.00
2023-04-27T02:40:14.681Z,21.00
2023-04-27T02:45:18.103Z,25.00
2023-04-27T02:50:21.583Z,19.50
2023-04-27T02:55:24.875Z,22.00
2023-04-27T03:00:27.976Z,20.50
2023-04-27T03:05:32.012Z,20.50
2023-04-27T03:15:39.466Z,20.50
2023-04-27T03:20:42.623Z,23.00
2023-04-27T03:25:45.966Z,20.00
2023-04-27T03:35:56.974Z,19.00
2023-04-27T03:41:00.212Z,20.00
2023-04-27T03:46:03.670Z,16.50
2023-04-27T03:51:07.136Z,19.00
2023-04-27T03:56:10.882Z,19.50
2023-04-27T04:01:14.968Z,21.00
2023-04-27T04:06:18.162Z,19.00
2023-04-27T04:11:21.554Z,16.00
2023-04-27T04:16:25.714Z,20.00
2023-04-27T04:21:29.295Z,21.00
2023-04-27T04:26:32.651Z,19.50
2023-04-27T04:36:38.910Z,21.00
2023-04-27T04:41:42.289Z,17.00
2023-04-27T04:46:47.491Z,19.00
2023-04-27T04:51:51.169Z,22.00
2023-04-27T04:56:54.390Z,21.00
2023-04-27T05:01:57.768Z,21.00
2023-04-27T05:07:01.404Z,20.00
2023-04-27T05:12:05.028Z,20.00
2023-04-27T05:17:08.361Z,18.00
2023-04-27T05:22:11.640Z,21.00
2023-04-27T05:27:15.111Z,21.00
2023-04-27T05:32:18.230Z,21.00
2023-04-27T05:37:21.546Z,20.00
2023-04-27T05:42:24.682Z,22.00
2023-04-27T05:57:35.185Z,19.00
2023-04-27T06:02:38.583Z,19.00
2023-04-27T06:07:43.891Z,19.00
2023-04-27T06:17:50.806Z,20.00
2023-04-27T06:22:53.993Z,16.00
2023-04-27T06:33:00.544Z,21.00
2023-04-27T06:38:04.832Z,18.00
2023-04-27T06:43:09.979Z,17.00
2023-04-27T06:48:13.431Z,16.00
2023-04-27T06:53:17.544Z,16.00
2023-04-27T06:58:20.796Z,17.00
2023-04-27T07:03:23.987Z,17.50
2023-04-27T07:08:27.352Z,15.50
2023-04-27T07:13:30.867Z,12.00
2023-04-27T07:18:34.124Z,12.00
2023-04-27T07:23:37.271Z,15.50
2023-04-27T07:28:40.492Z,18.00
2023-04-27T07:33:43.737Z,17.00
2023-04-27T07:38:46.908Z,10.50
2023-04-27T07:43:51.989Z,12.00
2023-04-27T07:48:55.408Z,10.50
2023-04-27T07:53:58.553Z,11.00
2023-04-27T07:59:01.800Z,6.00
2023-04-27T08:04:05.383Z,7.00
2023-04-27T08:09:09.744Z,11.00
2023-04-27T08:14:15.711Z,11.00
2023-04-27T08:19:19.079Z,8.00
2023-04-27T08:24:22.258Z,5.00
2023-04-27T08:34:32.448Z,5.00
2023-04-27T08:39:35.536Z,7.00
2023-04-27T08:44:42.652Z,6.00
2023-04-27T08:49:45.799Z,7.00
2023-04-27T09:00:02.418Z,8.00
2023-04-27T09:05:06.992Z,8.00
2023-04-27T09:10:10.813Z,9.00
2023-04-27T09:15:14.007Z,9.50
2023-04-27T09:20:18.958Z,9.50
2023-04-27T09:30:33.323Z,6.50
2023-04-27T09:40:40.352Z,6.00
2023-04-27T09:45:43.784Z,7.00
2023-04-27T09:56:02.693Z,7.50
2023-04-27T10:01:17.641Z,8.00
2023-04-27T10:06:59.257Z,9.00
2023-04-27T10:12:18.638Z,10.00
2023-04-27T10:17:35.955Z,9.50
2023-04-27T10:22:50.323Z,9.00
2023-04-27T10:27:56.818Z,11.00
2023-04-27T10:33:05.647Z,7.00
2023-04-27T10:38:10.585Z,10.00
2023-04-27T10:43:16.366Z,5.50
2023-04-27T10:48:20.017Z,8.00
2023-04-27T10:53:23.333Z,5.00
2023-04-27T11:03:56.068Z,9.00
2023-04-27T11:09:00.170Z,8.00
2023-04-27T11:14:03.920Z,8.00
2023-04-27T11:19:07.271Z,6.50
2023-04-27T11:24:12.070Z,9.00
2023-04-27T11:29:17.066Z,8.00
2023-04-27T11:34:22.798Z,10.50
2023-04-27T11:39:33.093Z,12.50
2023-04-27T11:44:36.342Z,11.00
2023-04-27T11:49:39.711Z,12.00
2023-04-27T11:54:56.068Z,13.00
2023-04-27T12:00:02.496Z,10.50
2023-04-27T12:05:17.518Z,11.00
2023-04-27T12:10:21.018Z,10.00
2023-04-27T12:15:24.149Z,10.00
2023-04-27T12:25:30.674Z,10.00
2023-04-27T12:30:35.092Z,11.00
2023-04-27T12:35:38.694Z,10.00
2023-04-27T12:40:41.932Z,10.00
2023-04-27T12:45:45.073Z,9.50
2023-04-27T12:50:48.676Z,12.00
2023-04-27T12:55:51.999Z,11.00
2023-04-27T13:00:57.896Z,12.00
2023-04-27T13:06:02.138Z,11.00
2023-04-27T13:11:05.561Z,11.00
2023-04-27T13:16:08.919Z,11.00
2023-04-27T13:21:12.231Z,10.00
2023-04-27T13:26:16.631Z,10.00
2023-04-27T13:31:20.463Z,12.00
2023-04-27T13:36:23.755Z,11.00
2023-04-27T13:46:30.242Z,13.00
2023-04-27T13:51:35.298Z,12.00
2023-04-27T13:56:39.238Z,12.00
2023-04-27T14:01:42.446Z,15.00
2023-04-27T14:11:56.441Z,12.00
2023-04-27T14:17:00.577Z,13.00
2023-04-27T14:27:08.233Z,9.50
2023-04-27T14:32:11.633Z,11.00
2023-04-27T14:37:15.093Z,11.00
2023-04-27T14:42:18.473Z,10.00
2023-04-27T14:57:28.437Z,20.00
2023-04-27T15:02:33.835Z,16.00
2023-04-27T15:07:37.640Z,16.00
2023-04-27T15:12:40.950Z,17.00
2023-04-27T15:17:44.295Z,14.50
2023-04-27T15:22:47.613Z,12.50
2023-04-27T15:32:54.922Z,11.00
2023-04-27T15:37:58.356Z,10.00
2023-04-27T15:43:01.939Z,10.00
2023-04-27T15:48:05.152Z,10.00
2023-04-27T15:53:09.250Z,11.00
2023-04-27T15:58:12.663Z,11.00
2023-04-27T16:03:16.542Z,12.00
2023-04-27T16:08:20.190Z,8.00
2023-04-27T16:13:23.946Z,7.00
2023-04-27T16:18:27.127Z,9.00
2023-04-27T16:28:34.229Z,6.00
2023-04-27T16:38:40.491Z,12.00
2023-04-27T16:43:43.718Z,11.00
2023-04-27T16:48:47.158Z,11.50
2023-04-27T16:53:51.037Z,11.00
2023-04-27T16:58:54.651Z,12.00
2023-04-27T17:09:02.316Z,12.00
2023-04-27T17:14:05.689Z,12.00
2023-04-27T17:19:09.042Z,13.00
2023-04-27T17:34:19.807Z,14.00
2023-04-27T17:39:25.233Z,13.00
2023-04-27T17:44:28.691Z,14.00
2023-04-27T17:49:33.117Z,16.00
2023-04-27T17:54:36.897Z,16.00
2023-04-27T17:59:40.280Z,19.00
2023-04-27T18:14:53.069Z,18.00
2023-04-27T18:20:07.492Z,19.00
2023-04-27T18:25:12.040Z,23.00
2023-04-27T18:30:15.585Z,21.00
2023-04-27T18:35:18.770Z,21.00
2023-04-27T18:40:22.658Z,19.00
2023-04-27T18:45:25.906Z,18.00
2023-04-27T18:50:29.265Z,16.50
2023-04-27T19:00:40.371Z,21.00
2023-04-27T19:05:43.645Z,18.00
2023-04-27T19:10:46.938Z,17.00
2023-04-27T19:15:50.343Z,18.00
2023-04-27T19:20:53.592Z,21.00
2023-04-27T19:26:02.775Z,19.50
2023-04-27T19:31:13.402Z,25.00
2023-04-27T19:36:16.633Z,24.00
2023-04-27T19:41:19.892Z,25.00
2023-04-27T19:46:23.182Z,22.00
2023-04-27T20:01:33.375Z,22.00
2023-04-27T20:06:36.626Z,26.00
2023-04-27T20:11:39.850Z,26.00
2023-04-27T20:16:43.156Z,28.00
2023-04-27T20:21:46.749Z,28.00
2023-04-27T20:26:49.889Z,29.00
2023-04-27T20:31:53.239Z,29.00
2023-04-27T20:36:58.058Z,31.00
2023-04-27T20:42:01.567Z,35.00
2023-04-27T20:52:08.562Z,32.50
2023-04-27T21:02:17.975Z,33.00
2023-04-27T21:12:24.468Z,35.00
2023-04-27T21:17:28.266Z,35.00
2023-04-27T21:22:31.470Z,37.50
2023-04-27T21:27:34.939Z,34.00
2023-04-27T21:32:38.354Z,35.00
2023-04-27T21:37:41.808Z,34.00
2023-04-27T21:47:48.435Z,34.00
2023-04-27T21:57:55.014Z,33.50
2023-04-27T22:02:58.710Z,33.00
2023-04-27T22:08:01.925Z,33.00
2023-04-27T22:13:17.831Z,33.00
2023-04-27T22:18:22.376Z,34.00
2023-04-27T22:28:28.963Z,36.00
2023-04-27T22:33:32.862Z,31.50
2023-04-27T22:38:36.737Z,40.00
2023-04-27T22:43:39.862Z,40.00
2023-04-27T22:53:47.578Z,39.00
2023-04-27T23:03:54.409Z,38.00
2023-04-27T23:08:57.781Z,40.00
2023-04-27T23:14:00.956Z,40.00
2023-04-27T23:24:07.336Z,35.50
2023-04-27T23:29:10.542Z,33.00
2023-04-27T23:39:17.326Z,38.00
2023-04-27T23:49:23.563Z,33.00
2023-04-27T23:54:32.908Z,35.00
2023-04-27T23:59:36.258Z,34.00
